createdAt,value
2023-04-20T00:01:44.649Z,2.78
2023-04-20T00:04:34.464Z,2.97
2023-04-20T00:07:25.883Z,2.97
2023-04-20T00:10:15.140Z,2.70
2023-04-20T00:13:04.356Z,2.65
2023-04-20T00:15:53.587Z,3.13
2023-04-20T00:18:43.010Z,2.95
2023-04-20T00:21:35.404Z,2.30
2023-04-20T00:24:24.670Z,2.85
2023-04-20T00:27:14.306Z,2.70
2023-04-20T00:30:03.639Z,2.85
2023-04-20T00:32:53.004Z,2.65
2023-04-20T00:35:42.283Z,2.70
2023-04-20T00:38:31.523Z,2.95
2023-04-20T00:41:21.691Z,2.67
2023-04-20T00:44:14.871Z,2.80
2023-04-20T00:47:04.245Z,2.60
2023-04-20T00:49:56.396Z,2.90
2023-04-20T00:52:46.644Z,2.50
2023-04-20T00:55:37.787Z,2.72
2023-04-20T00:58:27.339Z,2.65
2023-04-20T01:01:20.757Z,2.30
2023-04-20T01:04:11.237Z,2.70
2023-04-20T01:07:00.560Z,2.83
2023-04-20T01:09:49.830Z,2.60
2023-04-20T01:12:39.062Z,2.90
2023-04-20T01:15:28.402Z,2.55
2023-04-20T01:18:20.110Z,2.78
2023-04-20T01:21:09.773Z,3.17
2023-04-20T01:23:59.030Z,2.90
2023-04-20T01:26:48.327Z,3.17
2023-04-20T01:29:37.595Z,2.63
2023-04-20T01:32:27.056Z,3.10
2023-04-20T01:35:17.210Z,2.60
2023-04-20T01:38:07.157Z,2.85
2023-04-20T01:40:57.022Z,2.90
2023-04-20T01:43:46.341Z,2.78
2023-04-20T01:46:40.393Z,3.00
2023-04-20T01:49:29.696Z,2.75
2023-04-20T01:52:19.808Z,3.20
2023-04-20T01:55:12.681Z,2.67
2023-04-20T01:58:01.916Z,2.65
2023-04-20T02:00:51.341Z,2.83
2023-04-20T02:03:40.946Z,2.83
2023-04-20T02:06:30.534Z,2.40
2023-04-20T02:09:19.880Z,2.67
2023-04-20T02:12:09.166Z,2.90
2023-04-20T02:15:01.689Z,3.10
2023-04-20T02:17:53.247Z,2.97
2023-04-20T02:20:45.201Z,2.90
2023-04-20T02:23:34.833Z,2.65
2023-04-20T02:26:24.783Z,2.50
2023-04-20T02:29:14.068Z,3.45
2023-04-20T02:32:03.516Z,2.70
2023-04-20T02:34:53.036Z,2.95
2023-04-20T02:37:42.299Z,2.92
2023-04-20T02:40:34.719Z,2.75
2023-04-20T02:43:24.474Z,2.95
2023-04-20T02:46:13.954Z,2.85
2023-04-20T02:49:04.566Z,3.03
2023-04-20T02:51:58.591Z,3.17
2023-04-20T02:54:48.319Z,2.80
2023-04-20T02:57:38.013Z,3.17
2023-04-20T03:00:27.778Z,3.60
2023-04-20T03:03:25.749Z,3.35
2023-04-20T03:06:15.516Z,2.97
2023-04-20T03:09:10.623Z,3.40
2023-04-20T03:12:19.337Z,3.00
2023-04-20T03:15:19.788Z,3.17
2023-04-20T03:18:23.391Z,3.20
2023-04-20T03:21:13.445Z,3.30
2023-04-20T03:24:03.000Z,3.10
2023-04-20T03:26:52.521Z,3.35
2023-04-20T03:29:51.655Z,2.72
2023-04-20T03:32:42.920Z,2.90
2023-04-20T03:35:32.162Z,3.25
2023-04-20T03:38:22.259Z,3.15
2023-04-20T03:41:11.748Z,3.40
2023-04-20T03:44:01.024Z,2.88
2023-04-20T03:46:50.259Z,3.40
2023-04-20T03:49:40.461Z,2.95
2023-04-20T03:52:29.744Z,3.08
2023-04-20T03:55:20.658Z,3.03
2023-04-20T03:58:16.700Z,3.25
2023-04-20T04:01:17.122Z,3.10
2023-04-20T04:06:59.704Z,2.80
2023-04-20T04:09:49.215Z,2.97
2023-04-20T04:12:38.726Z,3.30
2023-04-20T04:15:28.185Z,3.20
2023-04-20T04:18:24.656Z,3.90
2023-04-20T04:21:14.550Z,3.15
2023-04-20T04:24:09.575Z,3.15
2023-04-20T04:27:06.291Z,2.95
2023-04-20T04:30:00.163Z,3.40
2023-04-20T04:32:50.843Z,3.30
2023-04-20T04:35:42.515Z,3.38
2023-04-20T04:38:34.399Z,3.27
2023-04-20T04:41:24.611Z,3.40
2023-04-20T04:44:16.683Z,3.38
2023-04-20T04:47:06.629Z,3.50
2023-04-20T04:49:55.810Z,3.50
2023-04-20T04:52:45.314Z,3.58
2023-04-20T04:55:34.647Z,3.60
2023-04-20T04:58:23.974Z,3.05
2023-04-20T05:01:14.614Z,2.80
2023-04-20T05:04:04.283Z,3.20
2023-04-20T05:06:53.635Z,3.10
2023-04-20T05:09:43.263Z,3.35
2023-04-20T05:12:32.533Z,2.90
2023-04-20T05:15:21.839Z,3.10
2023-04-20T05:18:11.103Z,2.92
2023-04-20T05:21:00.494Z,3.08
2023-04-20T05:23:49.778Z,3.40
2023-04-20T05:26:39.224Z,3.80
2023-04-20T05:29:28.494Z,3.42
2023-04-20T05:32:17.680Z,3.30
2023-04-20T05:35:07.455Z,3.63
2023-04-20T05:37:56.828Z,3.47
2023-04-20T05:40:46.354Z,3.70
2023-04-20T05:43:35.751Z,2.92
2023-04-20T05:46:25.186Z,3.00
2023-04-20T05:49:14.554Z,3.50
2023-04-20T05:52:04.576Z,3.63
2023-04-20T05:54:54.421Z,3.50
2023-04-20T05:57:44.090Z,3.42
2023-04-20T06:00:33.467Z,3.67
2023-04-20T06:03:22.944Z,3.40
2023-04-20T06:06:12.369Z,3.20
2023-04-20T06:09:02.045Z,3.50
2023-04-20T06:11:51.293Z,3.42
2023-04-20T06:14:40.610Z,3.83
2023-04-20T06:17:30.056Z,3.33
2023-04-20T06:20:19.350Z,3.45
2023-04-20T06:23:08.576Z,3.20
2023-04-20T06:25:57.760Z,3.38
2023-04-20T06:28:48.384Z,3.63
2023-04-20T06:31:37.730Z,3.72
2023-04-20T06:34:27.108Z,3.58
2023-04-20T06:37:16.558Z,3.63
2023-04-20T06:40:09.140Z,3.25
2023-04-20T06:42:58.337Z,3.13
2023-04-20T06:45:47.845Z,5.25
2023-04-20T06:48:37.303Z,3.30
2023-04-20T06:51:28.660Z,5.53
2023-04-20T06:54:17.854Z,3.60
2023-04-20T06:57:07.270Z,3.28
2023-04-20T06:59:56.493Z,4.13
2023-04-20T07:02:46.895Z,3.33
2023-04-20T07:05:37.957Z,3.70
2023-04-20T07:08:27.243Z,3.63
2023-04-20T07:11:16.562Z,3.55
2023-04-20T07:14:05.911Z,3.45
2023-04-20T07:16:55.760Z,4.05
2023-04-20T07:19:45.180Z,3.47
2023-04-20T07:22:35.814Z,3.13
2023-04-20T07:25:25.591Z,3.50
2023-04-20T07:28:14.920Z,3.25
2023-04-20T07:31:04.109Z,3.92
2023-04-20T07:33:53.386Z,4.35
2023-04-20T07:36:42.602Z,4.20
2023-04-20T07:39:31.861Z,4.38
2023-04-20T07:42:22.578Z,3.50
2023-04-20T07:45:12.765Z,3.05
2023-04-20T07:48:03.478Z,3.70
2023-04-20T07:50:52.810Z,3.63
2023-04-20T07:53:43.270Z,3.78
2023-04-20T07:56:33.298Z,3.67
2023-04-20T07:59:22.615Z,3.50
2023-04-20T08:02:12.076Z,3.72
2023-04-20T08:05:04.277Z,4.07
2023-04-20T08:07:53.806Z,3.45
2023-04-20T08:10:43.046Z,3.70
2023-04-20T08:13:33.291Z,3.72
2023-04-20T08:16:22.911Z,4.18
2023-04-20T08:19:12.354Z,4.00
2023-04-20T08:22:02.310Z,4.50
2023-04-20T08:24:52.596Z,3.78
2023-04-20T08:27:41.905Z,3.80
2023-04-20T08:30:31.112Z,3.92
2023-04-20T08:33:21.038Z,3.65
2023-04-20T08:36:10.466Z,3.60
2023-04-20T08:39:08.792Z,4.30
2023-04-20T08:41:58.473Z,4.03
2023-04-20T08:44:47.877Z,4.63
2023-04-20T08:47:38.116Z,3.95
2023-04-20T08:50:27.617Z,3.70
2023-04-20T08:53:16.888Z,5.05
2023-04-20T08:56:06.643Z,3.90
2023-04-20T08:58:59.001Z,3.83
2023-04-20T09:01:48.511Z,3.83
2023-04-20T09:04:38.036Z,4.05
2023-04-20T09:07:27.372Z,5.20
2023-04-20T09:10:16.619Z,4.43
2023-04-20T09:13:06.240Z,4.18
2023-04-20T09:15:55.527Z,4.20
2023-04-20T09:18:54.913Z,3.80
2023-04-20T09:21:52.096Z,3.60
2023-04-20T09:24:45.163Z,4.32
2023-04-20T09:27:34.485Z,3.83
2023-04-20T09:30:24.043Z,4.07
2023-04-20T09:33:15.339Z,4.95
2023-04-20T09:36:06.808Z,3.70
2023-04-20T09:39:04.879Z,3.85
2023-04-20T09:41:54.398Z,3.55
2023-04-20T09:44:44.769Z,3.92
2023-04-20T09:47:38.422Z,3.60
2023-04-20T09:50:38.279Z,4.07
2023-04-20T09:53:33.128Z,3.80
2023-04-20T09:56:26.786Z,3.83
2023-04-20T09:59:17.235Z,3.97
2023-04-20T10:02:11.308Z,4.88
2023-04-20T10:05:02.450Z,4.05
2023-04-20T10:08:01.968Z,4.18
2023-04-20T10:10:53.307Z,5.47
2023-04-20T10:13:42.652Z,4.35
2023-04-20T10:16:32.151Z,3.72
2023-04-20T10:19:21.473Z,4.35
2023-04-20T10:22:26.499Z,4.57
2023-04-20T10:25:21.820Z,3.90
2023-04-20T10:28:14.091Z,5.68
2023-04-20T10:31:03.484Z,4.20
2023-04-20T10:33:57.189Z,4.93
2023-04-20T10:36:46.474Z,4.22
2023-04-20T10:39:35.739Z,4.00
2023-04-20T10:42:25.278Z,4.75
2023-04-20T10:45:15.064Z,4.25
2023-04-20T10:48:14.114Z,4.05
2023-04-20T10:51:11.734Z,6.07
2023-04-20T10:54:06.301Z,3.90
2023-04-20T10:56:55.651Z,3.67
2023-04-20T10:59:45.370Z,5.85
2023-04-20T11:02:34.807Z,3.88
2023-04-20T11:05:26.816Z,3.95
2023-04-20T11:08:16.051Z,3.70
2023-04-20T11:11:05.979Z,5.07
2023-04-20T11:14:15.576Z,4.40
2023-04-20T11:17:05.657Z,4.30
2023-04-20T11:20:06.615Z,4.05
2023-04-20T11:23:01.778Z,4.03
2023-04-20T11:25:55.909Z,4.43
2023-04-20T11:28:56.445Z,5.05
2023-04-20T11:31:52.785Z,4.40
2023-04-20T11:34:42.523Z,4.50
2023-04-20T11:37:32.726Z,4.80
2023-04-20T11:40:22.300Z,4.57
2023-04-20T11:43:11.619Z,4.40
2023-04-20T11:46:03.913Z,4.28
2023-04-20T11:48:53.252Z,4.18
2023-04-20T11:51:42.650Z,5.35
2023-04-20T11:54:35.065Z,4.55
2023-04-20T11:57:26.673Z,5.40
2023-04-20T12:00:16.446Z,4.60
2023-04-20T12:03:05.659Z,4.57
2023-04-20T12:05:55.302Z,4.35
2023-04-20T12:08:44.934Z,4.65
2023-04-20T12:11:34.296Z,4.40
2023-04-20T12:14:23.601Z,4.15
2023-04-20T12:17:12.889Z,4.07
2023-04-20T12:20:02.166Z,4.40
2023-04-20T12:22:51.486Z,4.30
2023-04-20T12:25:40.948Z,4.75
2023-04-20T12:28:30.189Z,4.50
2023-04-20T12:31:19.488Z,4.50
2023-04-20T12:34:08.793Z,4.13
2023-04-20T12:36:58.080Z,4.57
2023-04-20T12:39:47.446Z,4.25
2023-04-20T12:42:36.943Z,4.68
2023-04-20T12:45:26.183Z,4.82
2023-04-20T12:48:15.772Z,4.40
2023-04-20T12:51:05.164Z,4.55
2023-04-20T12:53:54.366Z,4.80
2023-04-20T12:56:43.651Z,5.00
2023-04-20T12:59:32.774Z,4.68
2023-04-20T13:02:22.305Z,4.15
2023-04-20T13:05:12.051Z,4.30
2023-04-20T13:08:01.283Z,4.10
2023-04-20T13:10:50.520Z,4.45
2023-04-20T13:13:39.760Z,4.40
2023-04-20T13:16:30.391Z,4.60
2023-04-20T13:19:19.840Z,4.60
2023-04-20T13:22:09.121Z,6.20
2023-04-20T13:24:58.430Z,4.20
2023-04-20T13:27:47.846Z,4.78
2023-04-20T13:30:37.095Z,4.72
2023-04-20T13:33:27.363Z,4.03
2023-04-20T13:36:16.697Z,4.07
2023-04-20T13:39:06.142Z,4.93
2023-04-20T13:41:55.782Z,4.28
2023-04-20T13:44:45.064Z,4.00
2023-04-20T13:47:34.879Z,3.83
2023-04-20T13:50:24.118Z,5.40
2023-04-20T13:53:13.460Z,4.10
2023-04-20T13:56:02.756Z,3.97
2023-04-20T13:58:52.071Z,4.13
2023-04-20T14:01:41.643Z,4.38
2023-04-20T14:04:31.506Z,5.15
2023-04-20T14:07:20.806Z,4.10
2023-04-20T14:10:10.972Z,3.92
2023-04-20T14:13:01.606Z,5.38
2023-04-20T14:15:52.097Z,3.80
2023-04-20T14:18:42.039Z,4.38
2023-04-20T14:21:31.341Z,4.00
2023-04-20T14:24:20.765Z,4.15
2023-04-20T14:27:10.143Z,4.95
2023-04-20T14:29:59.533Z,6.53
2023-04-20T14:32:57.982Z,5.13
2023-04-20T14:35:47.535Z,4.05
2023-04-20T14:38:36.969Z,4.00
2023-04-20T14:41:26.230Z,3.92
2023-04-20T14:44:15.605Z,5.00
2023-04-20T14:47:04.935Z,4.60
2023-04-20T14:49:54.169Z,4.40
2023-04-20T14:52:43.485Z,4.43
2023-04-20T14:55:33.025Z,4.70
2023-04-20T14:58:22.689Z,5.25
2023-04-20T15:01:12.614Z,4.10
2023-04-20T15:04:02.300Z,4.13
2023-04-20T15:06:51.711Z,4.20
2023-04-20T15:09:40.932Z,3.78
2023-04-20T15:12:30.160Z,4.10
2023-04-20T15:15:19.470Z,4.10
2023-04-20T15:18:08.826Z,5.15
2023-04-20T15:20:58.152Z,4.03
2023-04-20T15:23:47.394Z,4.78
2023-04-20T15:26:36.854Z,4.20
2023-04-20T15:29:26.221Z,4.50
2023-04-20T15:32:15.526Z,4.47
2023-04-20T15:35:04.910Z,4.15
2023-04-20T15:37:54.092Z,4.03
2023-04-20T15:40:43.544Z,4.97
2023-04-20T15:43:32.792Z,3.92
2023-04-20T15:46:25.348Z,4.80
2023-04-20T15:49:14.797Z,4.97
2023-04-20T15:52:05.609Z,4.30
2023-04-20T15:54:55.075Z,4.80
2023-04-20T15:57:44.920Z,3.92
2023-04-20T16:00:34.358Z,4.22
2023-04-20T16:03:23.816Z,4.10
2023-04-20T16:06:13.637Z,3.95
2023-04-20T16:09:03.159Z,4.32
2023-04-20T16:11:52.581Z,3.85
2023-04-20T16:14:42.122Z,4.13
2023-04-20T16:17:31.704Z,4.15
2023-04-20T16:20:21.106Z,3.90
2023-04-20T16:23:10.730Z,3.65
2023-04-20T16:26:00.290Z,4.47
2023-04-20T16:28:49.559Z,4.35
2023-04-20T16:31:38.916Z,4.00
2023-04-20T16:34:28.146Z,4.13
2023-04-20T16:37:17.482Z,5.50
2023-04-20T16:40:07.388Z,4.25
2023-04-20T16:42:56.675Z,3.80
2023-04-20T16:45:45.878Z,3.80
2023-04-20T16:48:35.258Z,4.00
2023-04-20T16:51:24.578Z,4.10
2023-04-20T16:54:13.989Z,4.35
2023-04-20T16:57:03.385Z,3.97
2023-04-20T16:59:52.590Z,3.97
2023-04-20T17:02:42.048Z,3.70
2023-04-20T17:05:31.602Z,5.00
2023-04-20T17:08:21.972Z,4.15
2023-04-20T17:11:11.281Z,4.13
2023-04-20T17:14:00.499Z,3.65
2023-04-20T17:16:51.862Z,4.65
2023-04-20T17:19:43.997Z,4.07
2023-04-20T17:22:33.344Z,3.95
2023-04-20T17:25:22.930Z,4.20
2023-04-20T17:28:12.850Z,4.28
2023-04-20T17:31:02.199Z,4.20
2023-04-20T17:33:51.443Z,3.70
2023-04-20T17:36:40.826Z,3.80
2023-04-20T17:39:30.080Z,4.05
2023-04-20T17:42:19.499Z,4.15
2023-04-20T17:45:09.232Z,4.57
2023-04-20T17:47:58.633Z,3.83
2023-04-20T17:50:52.271Z,3.33
2023-04-20T17:53:41.718Z,3.65
2023-04-20T17:56:31.007Z,3.97
2023-04-20T17:59:20.305Z,3.40
2023-04-20T18:02:10.331Z,3.60
2023-04-20T18:05:01.166Z,3.60
2023-04-20T18:07:50.548Z,3.60
2023-04-20T18:10:40.073Z,3.80
2023-04-20T18:13:29.713Z,3.50
2023-04-20T18:16:19.590Z,3.33
2023-04-20T18:19:08.885Z,3.90
2023-04-20T18:21:58.085Z,4.00
2023-04-20T18:24:47.430Z,3.28
2023-04-20T18:27:36.692Z,3.78
2023-04-20T18:30:27.024Z,3.78
2023-04-20T18:33:19.302Z,3.80
2023-04-20T18:36:08.874Z,3.33
2023-04-20T18:38:58.454Z,3.58
2023-04-20T18:41:47.718Z,3.42
2023-04-20T18:44:36.912Z,3.67
2023-04-20T18:47:27.439Z,3.63
2023-04-20T18:50:17.131Z,3.78
2023-04-20T18:53:06.503Z,3.45
2023-04-20T18:55:55.697Z,3.88
2023-04-20T18:58:44.972Z,3.90
2023-04-20T19:01:36.249Z,3.50
2023-04-20T19:04:25.623Z,3.05
2023-04-20T19:07:15.065Z,3.63
2023-04-20T19:10:04.501Z,3.95
2023-04-20T19:12:53.755Z,3.70
2023-04-20T19:15:43.040Z,3.45
2023-04-20T19:18:32.334Z,3.75
2023-04-20T19:21:22.124Z,3.80
2023-04-20T19:24:11.452Z,3.50
2023-04-20T19:27:00.846Z,3.80
2023-04-20T19:29:50.069Z,3.58
2023-04-20T19:32:39.728Z,3.30
2023-04-20T19:35:29.284Z,3.33
2023-04-20T19:38:20.017Z,3.95
2023-04-20T19:41:09.310Z,3.60
2023-04-20T19:44:00.304Z,3.38
2023-04-20T19:46:50.944Z,3.30
2023-04-20T19:49:40.197Z,3.78
2023-04-20T19:52:29.498Z,3.30
2023-04-20T19:55:18.835Z,3.80
2023-04-20T19:58:10.330Z,3.33
2023-04-20T20:01:00.679Z,3.42
2023-04-20T20:03:50.064Z,3.60
2023-04-20T20:06:39.544Z,3.83
2023-04-20T20:09:28.859Z,3.50
2023-04-20T20:12:18.120Z,3.45
2023-04-20T20:15:07.704Z,3.40
2023-04-20T20:17:59.247Z,3.72
2023-04-20T20:20:49.311Z,3.75
2023-04-20T20:23:38.723Z,3.92
2023-04-20T20:26:28.204Z,3.22
2023-04-20T20:29:17.937Z,3.30
2023-04-20T20:32:07.210Z,4.43
2023-04-20T20:35:00.418Z,3.63
2023-04-20T20:37:49.740Z,3.50
2023-04-20T20:40:40.856Z,3.40
2023-04-20T20:43:32.509Z,3.67
2023-04-20T20:46:22.055Z,3.85
2023-04-20T20:49:11.347Z,3.33
2023-04-20T20:52:01.052Z,3.33
2023-04-20T20:54:50.412Z,3.55
2023-04-20T20:57:39.720Z,3.30
2023-04-20T21:00:28.964Z,3.40
2023-04-20T21:03:18.445Z,3.60
2023-04-20T21:06:07.938Z,3.40
2023-04-20T21:08:57.247Z,3.17
2023-04-20T21:11:46.544Z,3.38
2023-04-20T21:14:35.846Z,3.67
2023-04-20T21:17:25.120Z,3.72
2023-04-20T21:20:17.201Z,3.75
2023-04-20T21:23:06.575Z,3.00
2023-04-20T21:25:55.901Z,3.13
2023-04-20T21:28:45.248Z,3.40
2023-04-20T21:31:34.958Z,3.80
2023-04-20T21:34:24.325Z,3.75
2023-04-20T21:37:13.853Z,2.92
2023-04-20T21:40:03.247Z,3.22
2023-04-20T21:42:52.493Z,3.17
2023-04-20T21:45:41.765Z,3.20
2023-04-20T21:48:31.704Z,3.20
2023-04-20T21:51:21.621Z,3.63
2023-04-20T21:54:10.881Z,3.40
2023-04-20T21:57:00.585Z,3.20
2023-04-20T21:59:49.752Z,4.00
2023-04-20T22:02:39.023Z,3.30
2023-04-20T22:05:30.425Z,3.40
2023-04-20T22:08:23.255Z,3.70
2023-04-20T22:11:12.646Z,4.00
2023-04-20T22:14:01.995Z,3.90
2023-04-20T22:16:53.092Z,3.45
2023-04-20T22:19:43.189Z,3.33
2023-04-20T22:22:32.479Z,3.50
2023-04-20T22:25:21.841Z,3.20
2023-04-20T22:28:12.035Z,3.15
2023-04-20T22:31:01.452Z,3.38
2023-04-20T22:33:50.696Z,3.42
2023-04-20T22:36:40.730Z,4.10
2023-04-20T22:39:29.937Z,3.60
2023-04-20T22:42:19.196Z,3.47
2023-04-20T22:45:12.514Z,3.28
2023-04-20T22:48:02.538Z,3.63
2023-04-20T22:50:52.218Z,3.78
2023-04-20T22:53:41.565Z,3.80
2023-04-20T22:56:30.850Z,3.78
2023-04-20T22:59:20.835Z,3.47
2023-04-20T23:02:10.412Z,3.95
2023-04-20T23:04:59.673Z,3.83
2023-04-20T23:07:49.108Z,3.33
2023-04-20T23:10:40.085Z,3.53
2023-04-20T23:13:29.424Z,3.65
2023-04-20T23:16:19.532Z,4.78
2023-04-20T23:19:08.880Z,3.95
2023-04-20T23:21:58.129Z,3.33
2023-04-20T23:24:47.362Z,3.35
2023-04-20T23:27:36.818Z,3.42
2023-04-20T23:30:26.111Z,3.03
2023-04-20T23:33:15.443Z,3.15
2023-04-20T23:36:04.865Z,3.67
2023-04-20T23:38:54.118Z,4.57
2023-04-20T23:41:43.377Z,4.18
2023-04-20T23:44:32.736Z,2.95
2023-04-20T23:47:22.164Z,3.42
2023-04-20T23:50:11.705Z,3.20
2023-04-20T23:53:01.003Z,3.45
2023-04-20T23:55:53.002Z,3.35
2023-04-20T23:58:42.455Z,3.15
